sensor_id;sensor_type;location;lat;lon;timestamp;temperature;humidity
10572;DHT22;5334;48.928;12.704;2024-02-23T00:02:18;8.40;99.90
10572;DHT22;5334;48.928;12.704;2024-02-23T00:04:44;8.30;99.90
10572;DHT22;5334;48.928;12.704;2024-02-23T00:07:10;8.30;99.90
10572;DHT22;5334;48.928;12.704;2024-02-23T00:09:36;8.20;99.90
10572;DHT22;5334;48.928;12.704;2024-02-23T00:12:02;8.10;99.90
10572;DHT22;5334;48.928;12.704;2024-02-23T00:14:28;8.10;99.90
10572;DHT22;5334;48.928;12.704;2024-02-23T00:16:56;8.20;99.90
10572;DHT22;5334;48.928;12.704;2024-02-23T00:19:22;8.20;99.90
10572;DHT22;5334;48.928;12.704;2024-02-23T00:21:49;8.10;99.90
10572;DHT22;5334;48.928;12.704;2024-02-23T00:24:16;8.30;99.90
10572;DHT22;5334;48.928;12.704;2024-02-23T00:26:42;8.30;99.90
10572;DHT22;5334;48.928;12.704;2024-02-23T00:29:08;8.20;99.90
10572;DHT22;5334;48.928;12.704;2024-02-23T00:31:37;8.10;99.90
10572;DHT22;5334;48.928;12.704;2024-02-23T00:34:06;8.10;99.90
10572;DHT22;5334;48.928;12.704;2024-02-23T00:36:38;8.10;99.90
10572;DHT22;5334;48.928;12.704;2024-02-23T00:39:03;8.10;99.90
10572;DHT22;5334;48.928;12.704;2024-02-23T00:41:29;8.10;99.90
10572;DHT22;5334;48.928;12.704;2024-02-23T00:43:55;8.10;99.90
10572;DHT22;5334;48.928;12.704;2024-02-23T00:46:20;8.10;99.90
10572;DHT22;5334;48.928;12.704;2024-02-23T00:48:46;8.10;99.90
10572;DHT22;5334;48.928;12.704;2024-02-23T00:51:12;8.20;99.90
10572;DHT22;5334;48.928;12.704;2024-02-23T00:53:38;8.20;99.90
10572;DHT22;5334;48.928;12.704;2024-02-23T00:56:04;8.20;99.90
10572;DHT22;5334;48.928;12.704;2024-02-23T00:58:29;8.30;99.90
10572;DHT22;5334;48.928;12.704;2024-02-23T01:00:55;8.30;99.90
10572;DHT22;5334;48.928;12.704;2024-02-23T01:03:21;8.30;99.90
10572;DHT22;5334;48.928;12.704;2024-02-23T01:05:47;8.40;99.90
10572;DHT22;5334;48.928;12.704;2024-02-23T01:08:13;8.40;99.90
10572;DHT22;5334;48.928;12.704;2024-02-23T01:10:38;8.40;99.90
10572;DHT22;5334;48.928;12.704;2024-02-23T01:13:04;8.40;99.90
10572;DHT22;5334;48.928;12.704;2024-02-23T01:15:30;8.50;99.90
10572;DHT22;5334;48.928;12.704;2024-02-23T01:17:56;8.50;99.90
10572;DHT22;5334;48.928;12.704;2024-02-23T01:20:22;8.50;99.90
10572;DHT22;5334;48.928;12.704;2024-02-23T01:22:48;8.50;99.90
10572;DHT22;5334;48.928;12.704;2024-02-23T01:25:13;8.40;99.90
10572;DHT22;5334;48.928;12.704;2024-02-23T01:27:41;8.40;99.90
10572;DHT22;5334;48.928;12.704;2024-02-23T01:30:07;8.40;99.90
10572;DHT22;5334;48.928;12.704;2024-02-23T01:32:33;8.40;99.90
10572;DHT22;5334;48.928;12.704;2024-02-23T01:34:59;8.40;99.90
10572;DHT22;5334;48.928;12.704;2024-02-23T01:37:24;8.30;99.90
10572;DHT22;5334;48.928;12.704;2024-02-23T01:39:50;8.30;99.90
10572;DHT22;5334;48.928;12.704;2024-02-23T01:42:16;8.40;99.90
10572;DHT22;5334;48.928;12.704;2024-02-23T01:44:41;8.40;99.90
10572;DHT22;5334;48.928;12.704;2024-02-23T01:47:07;8.40;99.90
10572;DHT22;5334;48.928;12.704;2024-02-23T01:49:33;8.40;99.90
10572;DHT22;5334;48.928;12.704;2024-02-23T01:52:00;8.40;99.90
10572;DHT22;5334;48.928;12.704;2024-02-23T01:54:27;8.40;99.90
10572;DHT22;5334;48.928;12.704;2024-02-23T01:56:54;8.50;99.90
10572;DHT22;5334;48.928;12.704;2024-02-23T01:59:20;8.50;99.90
10572;DHT22;5334;48.928;12.704;2024-02-23T02:01:46;8.50;99.90
10572;DHT22;5334;48.928;12.704;2024-02-23T02:04:12;8.50;99.90
10572;DHT22;5334;48.928;12.704;2024-02-23T02:06:38;8.60;99.90
10572;DHT22;5334;48.928;12.704;2024-02-23T02:09:04;8.60;99.90
10572;DHT22;5334;48.928;12.704;2024-02-23T02:11:29;8.60;99.90
10572;DHT22;5334;48.928;12.704;2024-02-23T02:13:55;8.60;99.90
10572;DHT22;5334;48.928;12.704;2024-02-23T02:16:20;8.60;99.90
10572;DHT22;5334;48.928;12.704;2024-02-23T02:18:46;8.60;99.90
10572;DHT22;5334;48.928;12.704;2024-02-23T02:21:12;8.60;99.90
10572;DHT22;5334;48.928;12.704;2024-02-23T02:23:38;8.50;99.90
10572;DHT22;5334;48.928;12.704;2024-02-23T02:26:04;8.50;99.90
10572;DHT22;5334;48.928;12.704;2024-02-23T02:28:30;8.50;99.90
10572;DHT22;5334;48.928;12.704;2024-02-23T02:30:56;8.50;99.90
10572;DHT22;5334;48.928;12.704;2024-02-23T02:33:22;8.50;99.90
10572;DHT22;5334;48.928;12.704;2024-02-23T02:35:49;8.30;99.90
10572;DHT22;5334;48.928;12.704;2024-02-23T02:38:17;7.90;99.90
10572;DHT22;5334;48.928;12.704;2024-02-23T02:40:43;7.70;99.90
10572;DHT22;5334;48.928;12.704;2024-02-23T02:43:09;7.50;99.90
10572;DHT22;5334;48.928;12.704;2024-02-23T02:45:35;7.30;99.90
10572;DHT22;5334;48.928;12.704;2024-02-23T02:48:01;7.10;99.90
10572;DHT22;5334;48.928;12.704;2024-02-23T02:50:29;7.00;99.90
10572;DHT22;5334;48.928;12.704;2024-02-23T02:52:55;6.90;99.90
10572;DHT22;5334;48.928;12.704;2024-02-23T02:55:21;6.80;99.90
10572;DHT22;5334;48.928;12.704;2024-02-23T02:57:46;6.80;99.90
10572;DHT22;5334;48.928;12.704;2024-02-23T03:00:12;6.70;99.90
10572;DHT22;5334;48.928;12.704;2024-02-23T03:02:38;6.60;99.90
10572;DHT22;5334;48.928;12.704;2024-02-23T03:05:04;6.50;99.90
10572;DHT22;5334;48.928;12.704;2024-02-23T03:07:30;6.50;99.90
10572;DHT22;5334;48.928;12.704;2024-02-23T03:09:56;6.50;99.90
10572;DHT22;5334;48.928;12.704;2024-02-23T03:12:21;6.50;99.90
10572;DHT22;5334;48.928;12.704;2024-02-23T03:14:47;6.40;99.90
10572;DHT22;5334;48.928;12.704;2024-02-23T03:17:13;6.40;99.90
10572;DHT22;5334;48.928;12.704;2024-02-23T03:19:38;6.40;99.90
10572;DHT22;5334;48.928;12.704;2024-02-23T03:22:04;6.50;99.90
10572;DHT22;5334;48.928;12.704;2024-02-23T03:24:30;6.50;99.90
10572;DHT22;5334;48.928;12.704;2024-02-23T03:26:56;6.40;99.90
10572;DHT22;5334;48.928;12.704;2024-02-23T03:29:22;6.40;99.90
10572;DHT22;5334;48.928;12.704;2024-02-23T03:31:55;6.40;99.90
10572;DHT22;5334;48.928;12.704;2024-02-23T03:34:21;6.40;99.90
10572;DHT22;5334;48.928;12.704;2024-02-23T03:36:46;6.40;99.90
10572;DHT22;5334;48.928;12.704;2024-02-23T03:39:12;6.40;99.90
10572;DHT22;5334;48.928;12.704;2024-02-23T03:41:38;6.40;99.90
10572;DHT22;5334;48.928;12.704;2024-02-23T03:44:04;6.30;99.90
10572;DHT22;5334;48.928;12.704;2024-02-23T03:46:29;6.30;99.90
10572;DHT22;5334;48.928;12.704;2024-02-23T03:48:55;6.30;99.90
10572;DHT22;5334;48.928;12.704;2024-02-23T03:51:21;6.30;99.90
10572;DHT22;5334;48.928;12.704;2024-02-23T03:53:46;6.30;99.90
10572;DHT22;5334;48.928;12.704;2024-02-23T03:56:12;6.20;99.90
10572;DHT22;5334;48.928;12.704;2024-02-23T03:58:38;6.20;99.90
10572;DHT22;5334;48.928;12.704;2024-02-23T04:01:04;6.20;99.90
10572;DHT22;5334;48.928;12.704;2024-02-23T04:03:29;6.20;99.90
10572;DHT22;5334;48.928;12.704;2024-02-23T04:05:55;6.20;99.90
10572;DHT22;5334;48.928;12.704;2024-02-23T04:08:21;6.20;99.90
10572;DHT22;5334;48.928;12.704;2024-02-23T04:10:46;6.30;99.90
10572;DHT22;5334;48.928;12.704;2024-02-23T04:13:12;6.30;99.90
10572;DHT22;5334;48.928;12.704;2024-02-23T04:15:43;6.30;99.90
10572;DHT22;5334;48.928;12.704;2024-02-23T04:18:09;6.30;99.90
10572;DHT22;5334;48.928;12.704;2024-02-23T04:20:35;6.30;99.90
10572;DHT22;5334;48.928;12.704;2024-02-23T04:23:00;6.30;99.90
10572;DHT22;5334;48.928;12.704;2024-02-23T04:25:26;6.30;99.90
10572;DHT22;5334;48.928;12.704;2024-02-23T04:27:52;6.20;99.90
10572;DHT22;5334;48.928;12.704;2024-02-23T04:30:17;6.30;99.90
10572;DHT22;5334;48.928;12.704;2024-02-23T04:32:43;6.30;99.90
10572;DHT22;5334;48.928;12.704;2024-02-23T04:35:09;6.30;99.90
10572;DHT22;5334;48.928;12.704;2024-02-23T04:37:35;6.30;99.90
10572;DHT22;5334;48.928;12.704;2024-02-23T04:40:01;6.30;99.90
10572;DHT22;5334;48.928;12.704;2024-02-23T04:42:27;6.30;99.90
10572;DHT22;5334;48.928;12.704;2024-02-23T04:44:54;6.30;99.90
10572;DHT22;5334;48.928;12.704;2024-02-23T04:47:20;6.30;99.90
10572;DHT22;5334;48.928;12.704;2024-02-23T04:49:46;6.20;99.90
10572;DHT22;5334;48.928;12.704;2024-02-23T04:52:12;6.20;99.90
10572;DHT22;5334;48.928;12.704;2024-02-23T04:54:37;6.20;99.90
10572;DHT22;5334;48.928;12.704;2024-02-23T04:57:03;6.30;99.90
10572;DHT22;5334;48.928;12.704;2024-02-23T04:59:29;6.30;99.90
10572;DHT22;5334;48.928;12.704;2024-02-23T05:01:57;6.30;99.90
10572;DHT22;5334;48.928;12.704;2024-02-23T05:04:23;6.30;99.90
10572;DHT22;5334;48.928;12.704;2024-02-23T05:06:48;6.30;99.90
10572;DHT22;5334;48.928;12.704;2024-02-23T05:09:14;6.30;99.90
10572;DHT22;5334;48.928;12.704;2024-02-23T05:11:40;6.30;99.90
10572;DHT22;5334;48.928;12.704;2024-02-23T05:14:05;6.20;99.90
10572;DHT22;5334;48.928;12.704;2024-02-23T05:16:31;6.20;99.90
10572;DHT22;5334;48.928;12.704;2024-02-23T05:18:57;6.20;99.90
10572;DHT22;5334;48.928;12.704;2024-02-23T05:21:23;6.10;99.90
10572;DHT22;5334;48.928;12.704;2024-02-23T05:23:49;6.10;99.90
10572;DHT22;5334;48.928;12.704;2024-02-23T05:26:15;6.00;99.90
10572;DHT22;5334;48.928;12.704;2024-02-23T05:28:40;6.00;99.90
10572;DHT22;5334;48.928;12.704;2024-02-23T05:31:07;6.00;99.90
10572;DHT22;5334;48.928;12.704;2024-02-23T05:33:34;6.00;99.90
10572;DHT22;5334;48.928;12.704;2024-02-23T05:36:00;5.90;99.90
10572;DHT22;5334;48.928;12.704;2024-02-23T05:38:26;5.90;99.90
10572;DHT22;5334;48.928;12.704;2024-02-23T05:40:52;5.90;99.90
10572;DHT22;5334;48.928;12.704;2024-02-23T05:48:11;5.80;99.90
10572;DHT22;5334;48.928;12.704;2024-02-23T05:50:37;5.70;99.90
10572;DHT22;5334;48.928;12.704;2024-02-23T05:53:02;5.70;99.90
10572;DHT22;5334;48.928;12.704;2024-02-23T05:55:30;5.80;99.90
10572;DHT22;5334;48.928;12.704;2024-02-23T05:57:56;5.80;99.90
10572;DHT22;5334;48.928;12.704;2024-02-23T06:00:21;5.80;99.90
10572;DHT22;5334;48.928;12.704;2024-02-23T06:02:48;5.90;99.90
10572;DHT22;5334;48.928;12.704;2024-02-23T06:05:13;5.90;99.90
10572;DHT22;5334;48.928;12.704;2024-02-23T06:07:39;5.90;99.90
10572;DHT22;5334;48.928;12.704;2024-02-23T06:10:06;6.00;99.90
10572;DHT22;5334;48.928;12.704;2024-02-23T06:12:31;6.00;99.90
10572;DHT22;5334;48.928;12.704;2024-02-23T06:14:57;6.00;99.90
10572;DHT22;5334;48.928;12.704;2024-02-23T06:17:24;6.00;99.90
10572;DHT22;5334;48.928;12.704;2024-02-23T06:19:50;6.00;99.90
10572;DHT22;5334;48.928;12.704;2024-02-23T06:22:16;6.00;99.90
10572;DHT22;5334;48.928;12.704;2024-02-23T06:24:47;6.00;99.90
10572;DHT22;5334;48.928;12.704;2024-02-23T06:27:13;5.90;99.90
10572;DHT22;5334;48.928;12.704;2024-02-23T06:29:39;5.90;99.90
10572;DHT22;5334;48.928;12.704;2024-02-23T06:32:05;6.00;99.90
10572;DHT22;5334;48.928;12.704;2024-02-23T06:34:31;6.00;99.90
10572;DHT22;5334;48.928;12.704;2024-02-23T06:36:57;6.00;99.90
10572;DHT22;5334;48.928;12.704;2024-02-23T06:39:23;6.00;99.90
10572;DHT22;5334;48.928;12.704;2024-02-23T06:41:48;6.10;99.90
10572;DHT22;5334;48.928;12.704;2024-02-23T06:44:14;6.10;99.90
10572;DHT22;5334;48.928;12.704;2024-02-23T06:46:40;6.10;99.90
10572;DHT22;5334;48.928;12.704;2024-02-23T06:49:07;6.10;99.90
10572;DHT22;5334;48.928;12.704;2024-02-23T06:51:32;6.20;99.90
10572;DHT22;5334;48.928;12.704;2024-02-23T06:53:58;6.20;99.90
10572;DHT22;5334;48.928;12.704;2024-02-23T06:56:24;6.30;99.90
10572;DHT22;5334;48.928;12.704;2024-02-23T06:58:49;6.40;99.90
10572;DHT22;5334;48.928;12.704;2024-02-23T07:01:24;6.40;99.90
10572;DHT22;5334;48.928;12.704;2024-02-23T07:03:50;6.40;99.90
10572;DHT22;5334;48.928;12.704;2024-02-23T07:06:21;6.30;99.90
10572;DHT22;5334;48.928;12.704;2024-02-23T07:08:47;6.30;99.90
10572;DHT22;5334;48.928;12.704;2024-02-23T07:11:12;6.30;99.90
10572;DHT22;5334;48.928;12.704;2024-02-23T07:13:38;6.30;99.90
10572;DHT22;5334;48.928;12.704;2024-02-23T07:16:05;6.20;99.90
10572;DHT22;5334;48.928;12.704;2024-02-23T07:18:31;6.20;99.90
10572;DHT22;5334;48.928;12.704;2024-02-23T07:20:58;6.20;99.90
10572;DHT22;5334;48.928;12.704;2024-02-23T07:23:24;6.30;99.90
10572;DHT22;5334;48.928;12.704;2024-02-23T07:25:49;6.30;99.90
10572;DHT22;5334;48.928;12.704;2024-02-23T07:28:18;6.30;99.90
10572;DHT22;5334;48.928;12.704;2024-02-23T07:30:45;6.40;99.90
10572;DHT22;5334;48.928;12.704;2024-02-23T07:33:11;6.40;99.90
10572;DHT22;5334;48.928;12.704;2024-02-23T07:35:37;6.40;99.90
10572;DHT22;5334;48.928;12.704;2024-02-23T07:38:03;6.30;99.90
10572;DHT22;5334;48.928;12.704;2024-02-23T07:40:30;6.30;99.90
10572;DHT22;5334;48.928;12.704;2024-02-23T07:42:57;6.30;99.90
10572;DHT22;5334;48.928;12.704;2024-02-23T07:45:25;6.20;99.90
10572;DHT22;5334;48.928;12.704;2024-02-23T07:47:53;6.30;99.90
10572;DHT22;5334;48.928;12.704;2024-02-23T07:50:20;6.30;99.90
10572;DHT22;5334;48.928;12.704;2024-02-23T07:52:46;6.40;99.90
10572;DHT22;5334;48.928;12.704;2024-02-23T07:55:12;6.40;99.90
10572;DHT22;5334;48.928;12.704;2024-02-23T07:57:48;6.40;99.90
10572;DHT22;5334;48.928;12.704;2024-02-23T08:00:18;6.40;99.90
10572;DHT22;5334;48.928;12.704;2024-02-23T08:02:44;6.30;99.90
10572;DHT22;5334;48.928;12.704;2024-02-23T08:05:10;6.40;99.90
10572;DHT22;5334;48.928;12.704;2024-02-23T08:07:37;6.40;99.90
10572;DHT22;5334;48.928;12.704;2024-02-23T08:10:08;6.50;99.90
10572;DHT22;5334;48.928;12.704;2024-02-23T08:12:36;6.50;99.90
10572;DHT22;5334;48.928;12.704;2024-02-23T08:15:02;6.50;99.90
10572;DHT22;5334;48.928;12.704;2024-02-23T08:17:31;6.50;99.90
10572;DHT22;5334;48.928;12.704;2024-02-23T08:19:57;6.50;99.90
10572;DHT22;5334;48.928;12.704;2024-02-23T08:22:23;6.50;99.90
10572;DHT22;5334;48.928;12.704;2024-02-23T08:24:49;6.60;99.90
10572;DHT22;5334;48.928;12.704;2024-02-23T08:27:15;6.60;99.90
10572;DHT22;5334;48.928;12.704;2024-02-23T08:29:40;6.50;99.90
10572;DHT22;5334;48.928;12.704;2024-02-23T08:32:07;6.60;99.90
10572;DHT22;5334;48.928;12.704;2024-02-23T08:34:32;6.50;99.90
10572;DHT22;5334;48.928;12.704;2024-02-23T08:37:00;6.50;99.90
10572;DHT22;5334;48.928;12.704;2024-02-23T08:39:27;6.40;99.90
10572;DHT22;5334;48.928;12.704;2024-02-23T08:41:53;6.50;99.90
10572;DHT22;5334;48.928;12.704;2024-02-23T08:44:21;6.60;99.90
10572;DHT22;5334;48.928;12.704;2024-02-23T08:46:48;6.70;99.90
10572;DHT22;5334;48.928;12.704;2024-02-23T08:49:14;6.70;99.90
10572;DHT22;5334;48.928;12.704;2024-02-23T08:51:40;6.80;99.90
10572;DHT22;5334;48.928;12.704;2024-02-23T08:54:11;6.90;99.90
10572;DHT22;5334;48.928;12.704;2024-02-23T08:56:39;7.00;99.90
10572;DHT22;5334;48.928;12.704;2024-02-23T08:59:15;7.10;99.90
10572;DHT22;5334;48.928;12.704;2024-02-23T09:01:43;7.10;99.90
10572;DHT22;5334;48.928;12.704;2024-02-23T09:04:09;7.20;99.90
10572;DHT22;5334;48.928;12.704;2024-02-23T09:06:35;7.30;99.90
10572;DHT22;5334;48.928;12.704;2024-02-23T09:09:01;7.50;99.90
10572;DHT22;5334;48.928;12.704;2024-02-23T09:11:27;7.60;99.90
10572;DHT22;5334;48.928;12.704;2024-02-23T09:13:55;7.70;99.90
10572;DHT22;5334;48.928;12.704;2024-02-23T09:16:21;7.70;99.90
10572;DHT22;5334;48.928;12.704;2024-02-23T09:18:50;8.00;99.90
10572;DHT22;5334;48.928;12.704;2024-02-23T09:21:16;8.10;99.90
10572;DHT22;5334;48.928;12.704;2024-02-23T09:23:44;8.10;99.90
10572;DHT22;5334;48.928;12.704;2024-02-23T09:26:12;8.20;99.90
10572;DHT22;5334;48.928;12.704;2024-02-23T09:28:38;8.20;99.90
10572;DHT22;5334;48.928;12.704;2024-02-23T09:31:07;8.10;99.90
10572;DHT22;5334;48.928;12.704;2024-02-23T09:33:32;8.00;99.90
10572;DHT22;5334;48.928;12.704;2024-02-23T09:35:58;7.90;99.90
10572;DHT22;5334;48.928;12.704;2024-02-23T09:38:25;7.80;99.90
10572;DHT22;5334;48.928;12.704;2024-02-23T09:40:51;7.70;99.90
10572;DHT22;5334;48.928;12.704;2024-02-23T09:43:17;7.60;99.90
10572;DHT22;5334;48.928;12.704;2024-02-23T09:45:46;7.60;99.90
10572;DHT22;5334;48.928;12.704;2024-02-23T09:48:13;7.60;99.90
10572;DHT22;5334;48.928;12.704;2024-02-23T09:50:40;7.60;99.90
10572;DHT22;5334;48.928;12.704;2024-02-23T09:53:07;7.60;99.90
10572;DHT22;5334;48.928;12.704;2024-02-23T09:55:35;7.60;99.90
10572;DHT22;5334;48.928;12.704;2024-02-23T09:58:02;7.60;99.90
10572;DHT22;5334;48.928;12.704;2024-02-23T10:00:29;7.60;99.90
10572;DHT22;5334;48.928;12.704;2024-02-23T10:02:56;7.60;99.90
10572;DHT22;5334;48.928;12.704;2024-02-23T10:05:23;7.50;99.90
10572;DHT22;5334;48.928;12.704;2024-02-23T10:07:52;7.40;99.90
10572;DHT22;5334;48.928;12.704;2024-02-23T10:10:28;7.40;99.90
10572;DHT22;5334;48.928;12.704;2024-02-23T10:12:54;7.30;99.90
10572;DHT22;5334;48.928;12.704;2024-02-23T10:15:20;7.30;99.90
10572;DHT22;5334;48.928;12.704;2024-02-23T10:17:46;7.30;99.90
10572;DHT22;5334;48.928;12.704;2024-02-23T10:20:11;7.20;99.90
10572;DHT22;5334;48.928;12.704;2024-02-23T10:22:37;7.10;99.90
10572;DHT22;5334;48.928;12.704;2024-02-23T10:25:03;7.20;99.90
10572;DHT22;5334;48.928;12.704;2024-02-23T10:27:30;7.20;99.90
10572;DHT22;5334;48.928;12.704;2024-02-23T10:29:56;7.20;99.90
10572;DHT22;5334;48.928;12.704;2024-02-23T10:32:22;7.10;99.90
10572;DHT22;5334;48.928;12.704;2024-02-23T10:34:48;7.20;99.90
10572;DHT22;5334;48.928;12.704;2024-02-23T10:37:17;7.20;99.90
10572;DHT22;5334;48.928;12.704;2024-02-23T10:39:42;7.20;99.90
10572;DHT22;5334;48.928;12.704;2024-02-23T10:42:09;7.20;99.90
10572;DHT22;5334;48.928;12.704;2024-02-23T10:44:37;7.30;99.90
10572;DHT22;5334;48.928;12.704;2024-02-23T10:47:04;7.30;99.90
10572;DHT22;5334;48.928;12.704;2024-02-23T10:49:31;7.30;99.90
10572;DHT22;5334;48.928;12.704;2024-02-23T10:51:57;7.30;99.90
10572;DHT22;5334;48.928;12.704;2024-02-23T10:54:24;7.30;99.90
10572;DHT22;5334;48.928;12.704;2024-02-23T10:56:52;7.30;99.90
10572;DHT22;5334;48.928;12.704;2024-02-23T10:59:22;7.30;99.90
10572;DHT22;5334;48.928;12.704;2024-02-23T11:01:50;7.30;99.90
10572;DHT22;5334;48.928;12.704;2024-02-23T11:04:17;7.30;99.90
10572;DHT22;5334;48.928;12.704;2024-02-23T11:06:49;7.40;99.90
10572;DHT22;5334;48.928;12.704;2024-02-23T11:09:15;7.40;99.90
10572;DHT22;5334;48.928;12.704;2024-02-23T11:11:52;7.50;99.90
10572;DHT22;5334;48.928;12.704;2024-02-23T11:14:18;7.50;99.90
10572;DHT22;5334;48.928;12.704;2024-02-23T11:16:54;7.50;99.90
10572;DHT22;5334;48.928;12.704;2024-02-23T11:19:19;7.50;99.90
10572;DHT22;5334;48.928;12.704;2024-02-23T11:21:52;7.40;99.90
10572;DHT22;5334;48.928;12.704;2024-02-23T11:24:18;7.50;99.90
10572;DHT22;5334;48.928;12.704;2024-02-23T11:26:44;7.50;99.90
10572;DHT22;5334;48.928;12.704;2024-02-23T11:29:11;7.50;99.90
10572;DHT22;5334;48.928;12.704;2024-02-23T11:31:44;7.40;99.90
10572;DHT22;5334;48.928;12.704;2024-02-23T11:34:10;7.30;99.90
10572;DHT22;5334;48.928;12.704;2024-02-23T11:36:38;7.40;99.90
10572;DHT22;5334;48.928;12.704;2024-02-23T11:39:04;7.40;99.90
10572;DHT22;5334;48.928;12.704;2024-02-23T11:41:30;7.40;99.90
10572;DHT22;5334;48.928;12.704;2024-02-23T11:43:57;7.50;99.90
10572;DHT22;5334;48.928;12.704;2024-02-23T11:46:24;7.50;99.90
10572;DHT22;5334;48.928;12.704;2024-02-23T11:48:49;7.50;99.90
10572;DHT22;5334;48.928;12.704;2024-02-23T11:51:22;7.50;99.90
10572;DHT22;5334;48.928;12.704;2024-02-23T11:53:49;7.60;99.90
10572;DHT22;5334;48.928;12.704;2024-02-23T11:56:16;7.60;99.90
10572;DHT22;5334;48.928;12.704;2024-02-23T11:58:43;7.70;99.90
10572;DHT22;5334;48.928;12.704;2024-02-23T12:01:08;7.70;99.90
10572;DHT22;5334;48.928;12.704;2024-02-23T12:03:34;7.70;99.90
10572;DHT22;5334;48.928;12.704;2024-02-23T12:06:01;7.80;99.90
10572;DHT22;5334;48.928;12.704;2024-02-23T12:08:27;7.90;99.90
10572;DHT22;5334;48.928;12.704;2024-02-23T12:10:54;7.90;99.90
10572;DHT22;5334;48.928;12.704;2024-02-23T12:13:20;7.90;99.90
10572;DHT22;5334;48.928;12.704;2024-02-23T12:15:47;7.90;99.90
10572;DHT22;5334;48.928;12.704;2024-02-23T12:18:13;7.90;99.90
10572;DHT22;5334;48.928;12.704;2024-02-23T12:20:40;7.90;99.90
10572;DHT22;5334;48.928;12.704;2024-02-23T12:23:06;7.90;99.90
10572;DHT22;5334;48.928;12.704;2024-02-23T12:25:33;7.80;99.90
10572;DHT22;5334;48.928;12.704;2024-02-23T12:27:59;7.80;99.90
10572;DHT22;5334;48.928;12.704;2024-02-23T12:30:26;7.80;99.90
10572;DHT22;5334;48.928;12.704;2024-02-23T12:33:04;7.70;99.90
10572;DHT22;5334;48.928;12.704;2024-02-23T12:35:30;7.60;99.90
10572;DHT22;5334;48.928;12.704;2024-02-23T12:37:55;7.70;99.90
10572;DHT22;5334;48.928;12.704;2024-02-23T12:40:21;7.70;99.90
10572;DHT22;5334;48.928;12.704;2024-02-23T12:42:47;7.60;99.90
10572;DHT22;5334;48.928;12.704;2024-02-23T12:45:14;7.60;99.90
10572;DHT22;5334;48.928;12.704;2024-02-23T12:47:39;7.50;99.90
10572;DHT22;5334;48.928;12.704;2024-02-23T12:50:06;7.40;99.90
10572;DHT22;5334;48.928;12.704;2024-02-23T12:52:33;7.40;99.90
10572;DHT22;5334;48.928;12.704;2024-02-23T12:54:59;7.40;99.90
10572;DHT22;5334;48.928;12.704;2024-02-23T12:57:25;7.40;99.90
10572;DHT22;5334;48.928;12.704;2024-02-23T12:59:51;7.30;99.90
10572;DHT22;5334;48.928;12.704;2024-02-23T13:02:16;7.10;99.90
10572;DHT22;5334;48.928;12.704;2024-02-23T13:04:42;6.90;99.90
10572;DHT22;5334;48.928;12.704;2024-02-23T13:07:17;6.80;99.90
10572;DHT22;5334;48.928;12.704;2024-02-23T13:09:43;6.80;99.90
10572;DHT22;5334;48.928;12.704;2024-02-23T13:12:09;6.80;99.90
10572;DHT22;5334;48.928;12.704;2024-02-23T13:14:34;6.90;99.90
10572;DHT22;5334;48.928;12.704;2024-02-23T13:17:00;6.90;99.90
10572;DHT22;5334;48.928;12.704;2024-02-23T13:19:26;7.10;99.90
10572;DHT22;5334;48.928;12.704;2024-02-23T13:21:52;7.10;99.90
10572;DHT22;5334;48.928;12.704;2024-02-23T13:24:17;7.20;99.90
10572;DHT22;5334;48.928;12.704;2024-02-23T13:26:43;7.10;99.90
10572;DHT22;5334;48.928;12.704;2024-02-23T13:29:09;7.10;99.90
10572;DHT22;5334;48.928;12.704;2024-02-23T13:31:34;7.00;99.90
10572;DHT22;5334;48.928;12.704;2024-02-23T13:34:00;7.00;99.90
10572;DHT22;5334;48.928;12.704;2024-02-23T13:36:26;7.00;99.90
10572;DHT22;5334;48.928;12.704;2024-02-23T13:38:51;6.90;99.90
10572;DHT22;5334;48.928;12.704;2024-02-23T13:41:17;6.90;99.90
10572;DHT22;5334;48.928;12.704;2024-02-23T13:43:43;6.80;99.90
10572;DHT22;5334;48.928;12.704;2024-02-23T13:46:09;6.80;99.90
10572;DHT22;5334;48.928;12.704;2024-02-23T13:48:36;6.90;99.90
10572;DHT22;5334;48.928;12.704;2024-02-23T13:51:02;6.90;99.90
10572;DHT22;5334;48.928;12.704;2024-02-23T13:53:30;6.90;99.90
10572;DHT22;5334;48.928;12.704;2024-02-23T13:55:56;7.00;99.90
10572;DHT22;5334;48.928;12.704;2024-02-23T13:58:22;7.00;99.90
10572;DHT22;5334;48.928;12.704;2024-02-23T14:00:48;7.00;99.90
10572;DHT22;5334;48.928;12.704;2024-02-23T14:03:16;7.00;99.90
10572;DHT22;5334;48.928;12.704;2024-02-23T14:05:45;6.90;99.90
10572;DHT22;5334;48.928;12.704;2024-02-23T14:08:12;6.80;99.90
10572;DHT22;5334;48.928;12.704;2024-02-23T14:10:38;6.70;99.90
10572;DHT22;5334;48.928;12.704;2024-02-23T14:13:05;6.70;99.90
10572;DHT22;5334;48.928;12.704;2024-02-23T14:15:31;6.60;99.90
10572;DHT22;5334;48.928;12.704;2024-02-23T14:17:57;6.50;99.90
10572;DHT22;5334;48.928;12.704;2024-02-23T14:20:23;6.50;99.90
10572;DHT22;5334;48.928;12.704;2024-02-23T14:22:48;6.50;99.90
10572;DHT22;5334;48.928;12.704;2024-02-23T14:25:15;6.50;99.90
10572;DHT22;5334;48.928;12.704;2024-02-23T14:27:41;6.50;99.90
10572;DHT22;5334;48.928;12.704;2024-02-23T14:30:07;6.50;99.90
10572;DHT22;5334;48.928;12.704;2024-02-23T14:32:33;6.50;99.90
10572;DHT22;5334;48.928;12.704;2024-02-23T14:35:03;6.60;99.90
10572;DHT22;5334;48.928;12.704;2024-02-23T14:37:29;6.70;99.90
10572;DHT22;5334;48.928;12.704;2024-02-23T14:39:55;6.70;99.90
10572;DHT22;5334;48.928;12.704;2024-02-23T14:42:20;6.80;99.90
10572;DHT22;5334;48.928;12.704;2024-02-23T14:44:46;6.80;99.90
10572;DHT22;5334;48.928;12.704;2024-02-23T14:47:12;6.80;99.90
10572;DHT22;5334;48.928;12.704;2024-02-23T14:49:38;6.80;99.90
10572;DHT22;5334;48.928;12.704;2024-02-23T14:52:04;6.90;99.90
10572;DHT22;5334;48.928;12.704;2024-02-23T14:54:30;6.90;99.90
10572;DHT22;5334;48.928;12.704;2024-02-23T14:56:56;6.80;99.90
10572;DHT22;5334;48.928;12.704;2024-02-23T14:59:21;6.70;99.90
10572;DHT22;5334;48.928;12.704;2024-02-23T15:01:47;6.70;99.90
10572;DHT22;5334;48.928;12.704;2024-02-23T15:04:12;6.60;99.90
10572;DHT22;5334;48.928;12.704;2024-02-23T15:06:38;6.60;99.90
10572;DHT22;5334;48.928;12.704;2024-02-23T15:09:04;6.60;99.90
10572;DHT22;5334;48.928;12.704;2024-02-23T15:11:31;6.50;99.90
10572;DHT22;5334;48.928;12.704;2024-02-23T15:13:57;6.50;99.90
10572;DHT22;5334;48.928;12.704;2024-02-23T15:16:27;6.40;99.90
10572;DHT22;5334;48.928;12.704;2024-02-23T15:18:53;6.30;99.90
10572;DHT22;5334;48.928;12.704;2024-02-23T15:21:19;6.30;99.90
10572;DHT22;5334;48.928;12.704;2024-02-23T15:23:47;6.30;99.90
10572;DHT22;5334;48.928;12.704;2024-02-23T15:26:12;6.30;99.90
10572;DHT22;5334;48.928;12.704;2024-02-23T15:28:38;6.20;99.90
10572;DHT22;5334;48.928;12.704;2024-02-23T15:31:04;6.20;99.90
10572;DHT22;5334;48.928;12.704;2024-02-23T15:33:30;6.20;99.90
10572;DHT22;5334;48.928;12.704;2024-02-23T15:35:56;6.20;99.90
10572;DHT22;5334;48.928;12.704;2024-02-23T15:38:21;6.20;99.90
10572;DHT22;5334;48.928;12.704;2024-02-23T15:40:47;6.20;99.90
10572;DHT22;5334;48.928;12.704;2024-02-23T15:43:15;6.20;99.90
10572;DHT22;5334;48.928;12.704;2024-02-23T15:45:41;6.20;99.90